createdAt,value
2018-06-22T00:01:55.665Z,1.67
2018-06-22T00:04:24.111Z,1.40
2018-06-22T00:06:52.515Z,1.90
2018-06-22T00:09:20.962Z,1.57
2018-06-22T00:11:49.337Z,1.80
2018-06-22T00:14:17.679Z,1.80
2018-06-22T00:16:46.117Z,2.00
2018-06-22T00:19:14.491Z,2.13
2018-06-22T00:21:42.886Z,1.80
2018-06-22T00:24:11.286Z,1.73
2018-06-22T00:26:39.713Z,2.10
2018-06-22T00:29:07.858Z,1.90
2018-06-22T00:31:36.279Z,2.10
2018-06-22T00:34:04.651Z,2.20
2018-06-22T00:36:33.066Z,1.73
2018-06-22T00:39:01.729Z,2.30
2018-06-22T00:41:30.106Z,1.97
2018-06-22T00:43:58.491Z,1.90
2018-06-22T00:46:27.064Z,1.93
2018-06-22T00:48:55.734Z,1.70
2018-06-22T00:51:24.309Z,2.20
2018-06-22T00:54:04.085Z,2.07
2018-06-22T00:56:32.479Z,1.97
2018-06-22T00:59:00.879Z,1.80
2018-06-22T01:01:29.290Z,2.23
2018-06-22T01:03:57.710Z,2.00
2018-06-22T01:06:26.095Z,1.50
2018-06-22T01:08:54.582Z,1.83
2018-06-22T01:11:22.974Z,1.87
2018-06-22T01:13:51.655Z,1.70
2018-06-22T01:16:20.039Z,1.87
2018-06-22T01:18:48.451Z,2.50
2018-06-22T01:21:16.818Z,1.80
2018-06-22T01:23:45.203Z,2.20
2018-06-22T01:26:13.600Z,2.47
2018-06-22T01:28:42.047Z,1.83
2018-06-22T01:31:10.430Z,1.70
2018-06-22T01:33:38.843Z,1.93
2018-06-22T01:36:07.242Z,1.90
2018-06-22T01:38:35.646Z,1.50
2018-06-22T01:41:04.030Z,1.90
2018-06-22T01:43:32.535Z,1.87
2018-06-22T01:46:00.901Z,1.90
2018-06-22T01:48:29.317Z,2.33
2018-06-22T01:50:57.712Z,2.63
2018-06-22T01:53:26.126Z,2.70
2018-06-22T01:55:54.491Z,2.13
2018-06-22T01:58:22.924Z,2.00
2018-06-22T02:00:51.437Z,2.60
2018-06-22T02:03:19.850Z,2.20
2018-06-22T02:05:48.215Z,2.73
2018-06-22T02:08:16.628Z,2.00
2018-06-22T02:10:44.998Z,2.00
2018-06-22T02:13:13.391Z,1.80
2018-06-22T02:15:41.767Z,1.90
2018-06-22T02:18:10.258Z,2.00
2018-06-22T02:20:38.774Z,1.87
2018-06-22T02:23:07.269Z,2.30
2018-06-22T02:25:35.654Z,1.73
2018-06-22T02:28:04.059Z,2.43
2018-06-22T02:30:32.444Z,2.00
2018-06-22T02:33:00.848Z,2.20
2018-06-22T02:35:29.214Z,2.07
2018-06-22T02:37:57.614Z,1.60
2018-06-22T02:40:26.010Z,2.07
2018-06-22T02:42:54.421Z,1.70
2018-06-22T02:45:22.825Z,2.20
2018-06-22T02:47:51.230Z,2.20
2018-06-22T02:50:19.663Z,1.93
2018-06-22T02:52:48.064Z,1.87
2018-06-22T02:55:16.477Z,2.23
2018-06-22T02:57:44.858Z,2.37
2018-06-22T03:00:13.272Z,1.90
2018-06-22T03:02:41.654Z,1.97
2018-06-22T03:05:10.091Z,2.50
2018-06-22T03:07:38.561Z,1.80
2018-06-22T03:10:07.268Z,1.90
2018-06-22T03:12:35.658Z,1.40
2018-06-22T03:15:04.550Z,1.73
2018-06-22T03:17:33.031Z,2.37
2018-06-22T03:20:01.394Z,1.90
2018-06-22T03:22:29.770Z,1.57
2018-06-22T03:24:58.358Z,1.67
2018-06-22T03:27:26.730Z,1.77
2018-06-22T03:29:55.222Z,1.80
2018-06-22T03:32:23.615Z,1.83
2018-06-22T03:34:51.995Z,1.90
2018-06-22T03:37:20.353Z,1.80
2018-06-22T03:39:48.725Z,2.23
2018-06-22T03:42:17.081Z,1.63
2018-06-22T03:44:45.493Z,1.57
2018-06-22T03:47:13.855Z,2.00
2018-06-22T03:49:42.210Z,1.70
2018-06-22T03:52:10.643Z,1.77
2018-06-22T03:54:38.982Z,2.20
2018-06-22T03:57:07.417Z,1.70
2018-06-22T03:59:35.766Z,2.00
2018-06-22T04:02:04.155Z,2.13
2018-06-22T04:04:32.598Z,2.20
2018-06-22T04:07:00.973Z,1.93
2018-06-22T04:09:29.362Z,2.00
2018-06-22T04:11:57.746Z,1.97
2018-06-22T04:14:26.055Z,1.93
2018-06-22T04:16:54.479Z,2.20
2018-06-22T04:19:22.813Z,2.00
2018-06-22T04:21:51.189Z,2.07
2018-06-22T04:24:19.541Z,2.03
2018-06-22T04:26:48.222Z,1.90
2018-06-22T04:29:18.226Z,2.17
2018-06-22T04:31:46.594Z,1.77
2018-06-22T04:34:15.645Z,1.80
2018-06-22T04:36:43.999Z,1.80
2018-06-22T04:39:13.230Z,1.73
2018-06-22T04:41:41.872Z,2.43
2018-06-22T04:44:10.206Z,1.83
2018-06-22T04:46:38.606Z,1.77
2018-06-22T04:49:06.981Z,1.60
2018-06-22T04:51:35.363Z,1.57
2018-06-22T04:54:03.713Z,1.63
2018-06-22T04:56:32.460Z,1.63
2018-06-22T04:59:00.867Z,1.77
2018-06-22T05:01:29.691Z,2.00
2018-06-22T05:03:58.106Z,2.00
2018-06-22T05:06:26.481Z,1.87
2018-06-22T05:08:54.985Z,1.67
2018-06-22T05:11:24.005Z,1.73
2018-06-22T05:13:52.426Z,1.63
2018-06-22T05:16:20.773Z,2.13
2018-06-22T05:18:49.194Z,1.80
2018-06-22T05:21:17.645Z,1.90
2018-06-22T05:23:46.006Z,1.57
2018-06-22T05:26:14.414Z,2.53
2018-06-22T05:28:42.914Z,1.83
2018-06-22T05:31:11.288Z,1.73
2018-06-22T05:33:39.710Z,1.70
2018-06-22T05:36:08.149Z,1.57
2018-06-22T05:38:36.827Z,2.00
2018-06-22T05:41:05.239Z,2.10
2018-06-22T05:43:33.600Z,2.10
2018-06-22T05:46:02.110Z,1.90
2018-06-22T05:48:30.690Z,1.90
2018-06-22T05:50:59.205Z,1.50
2018-06-22T05:53:27.565Z,1.73
2018-06-22T05:55:56.003Z,2.50
2018-06-22T05:58:24.394Z,2.13
2018-06-22T06:00:53.312Z,1.57
2018-06-22T06:03:21.791Z,1.90
2018-06-22T06:05:50.163Z,1.80
2018-06-22T06:08:18.637Z,1.80
2018-06-22T06:10:47.271Z,1.63
2018-06-22T06:13:15.671Z,1.67
2018-06-22T06:15:44.115Z,1.70
2018-06-22T06:18:12.527Z,1.40
2018-06-22T06:20:41.056Z,1.50
2018-06-22T06:23:09.604Z,1.77
2018-06-22T06:25:38.205Z,2.07
2018-06-22T06:28:06.561Z,1.67
2018-06-22T06:30:34.939Z,1.53
2018-06-22T06:33:03.478Z,1.60
2018-06-22T06:35:32.183Z,1.63
2018-06-22T06:38:00.579Z,1.77
2018-06-22T06:40:28.933Z,1.53
2018-06-22T06:42:57.399Z,1.90
2018-06-22T06:45:25.734Z,1.60
2018-06-22T06:47:54.098Z,1.97
2018-06-22T06:50:22.506Z,2.00
2018-06-22T06:52:50.918Z,1.60
2018-06-22T06:55:19.254Z,2.17
2018-06-22T06:57:47.642Z,2.10
2018-06-22T07:00:16.019Z,1.73
2018-06-22T07:02:44.403Z,1.73
2018-06-22T07:05:12.918Z,1.60
2018-06-22T07:07:41.463Z,1.80
2018-06-22T07:10:09.843Z,1.80
2018-06-22T07:12:38.225Z,1.70
2018-06-22T07:15:06.614Z,1.70
2018-06-22T07:17:35.285Z,1.80
2018-06-22T07:20:03.782Z,1.73
2018-06-22T07:22:32.160Z,1.67
2018-06-22T07:25:00.683Z,1.70
2018-06-22T07:27:29.121Z,1.60
2018-06-22T07:29:57.679Z,1.70
2018-06-22T07:32:26.075Z,1.97
2018-06-22T07:34:54.499Z,1.47
2018-06-22T07:37:22.979Z,1.63
2018-06-22T07:39:51.430Z,1.70
2018-06-22T07:42:19.972Z,1.70
2018-06-22T07:44:48.419Z,1.73
2018-06-22T07:47:16.802Z,1.77
2018-06-22T07:49:45.249Z,1.63
2018-06-22T07:52:13.605Z,1.20
2018-06-22T07:54:42.014Z,1.87
2018-06-22T07:57:10.445Z,1.50
2018-06-22T07:59:38.945Z,1.57
2018-06-22T08:02:07.456Z,1.53
2018-06-22T08:04:35.853Z,1.73
2018-06-22T08:07:10.918Z,1.83
2018-06-22T08:09:39.329Z,2.10
2018-06-22T08:12:07.708Z,1.80
2018-06-22T08:14:36.150Z,1.60
2018-06-22T08:17:11.123Z,1.70
2018-06-22T08:19:39.517Z,1.70
2018-06-22T08:22:07.952Z,1.70
2018-06-22T08:24:36.338Z,1.40
2018-06-22T08:27:05.247Z,1.70
2018-06-22T08:29:33.609Z,1.50
2018-06-22T08:32:02.108Z,1.80
2018-06-22T08:34:30.503Z,1.93
2018-06-22T08:36:58.947Z,1.57
2018-06-22T08:39:27.320Z,1.30
2018-06-22T08:41:55.755Z,1.70
2018-06-22T08:44:24.296Z,2.00
2018-06-22T08:46:52.667Z,1.40
2018-06-22T08:49:21.018Z,1.67
2018-06-22T08:51:49.443Z,1.40
2018-06-22T08:54:17.871Z,1.70
2018-06-22T08:56:46.493Z,1.67
2018-06-22T08:59:14.991Z,1.53
2018-06-22T09:01:43.470Z,1.93
2018-06-22T09:04:11.965Z,1.90
2018-06-22T09:06:40.427Z,1.40
2018-06-22T09:09:08.842Z,1.30
2018-06-22T09:11:38.109Z,1.35
2018-06-22T09:14:08.103Z,2.20
2018-06-22T09:16:36.507Z,1.50
2018-06-22T09:19:05.304Z,1.63
2018-06-22T09:21:33.650Z,1.77
2018-06-22T09:24:02.200Z,1.43
2018-06-22T09:26:30.751Z,1.63
2018-06-22T09:28:59.315Z,1.77
2018-06-22T09:31:28.171Z,1.63
2018-06-22T09:33:56.622Z,1.30
2018-06-22T09:36:24.968Z,1.17
2018-06-22T09:38:53.434Z,1.30
2018-06-22T09:41:22.209Z,1.60
2018-06-22T09:43:50.579Z,1.40
2018-06-22T09:46:19.134Z,1.47
2018-06-22T09:48:47.277Z,1.67
2018-06-22T09:51:15.645Z,2.40
2018-06-22T09:53:44.209Z,1.40
2018-06-22T09:56:12.658Z,1.63
2018-06-22T09:58:41.296Z,1.47
2018-06-22T10:01:09.740Z,1.80
2018-06-22T10:03:38.186Z,1.80
2018-06-22T10:06:06.810Z,1.42
2018-06-22T10:08:35.172Z,1.32
2018-06-22T10:11:03.601Z,1.37
2018-06-22T10:13:32.067Z,1.50
2018-06-22T10:16:00.519Z,1.75
2018-06-22T10:18:28.923Z,1.40
2018-06-22T10:20:57.786Z,1.60
2018-06-22T10:23:26.243Z,1.57
2018-06-22T10:25:54.694Z,1.20
2018-06-22T10:28:23.118Z,1.32
2018-06-22T10:30:51.624Z,1.10
2018-06-22T10:33:19.994Z,1.27
2018-06-22T10:35:48.449Z,1.30
2018-06-22T10:38:16.886Z,1.50
2018-06-22T10:40:45.354Z,1.45
2018-06-22T10:43:13.804Z,1.47
2018-06-22T10:45:42.240Z,1.00
2018-06-22T10:48:10.605Z,1.42
2018-06-22T10:50:39.086Z,1.72
2018-06-22T10:53:07.573Z,2.72
2018-06-22T10:55:35.990Z,1.20
2018-06-22T10:58:05.086Z,1.40
2018-06-22T11:00:33.576Z,2.00
2018-06-22T11:03:02.003Z,1.40
2018-06-22T11:05:30.479Z,1.62
2018-06-22T11:07:58.948Z,1.40
2018-06-22T11:10:27.117Z,1.77
2018-06-22T11:12:55.521Z,1.30
2018-06-22T11:15:24.022Z,1.75
2018-06-22T11:17:52.414Z,1.80
2018-06-22T11:20:20.753Z,1.45
2018-06-22T11:22:49.250Z,1.80
2018-06-22T11:25:17.700Z,2.60
2018-06-22T11:27:46.115Z,1.60
2018-06-22T11:30:14.562Z,1.65
2018-06-22T11:32:45.865Z,1.70
2018-06-22T11:35:14.281Z,1.70
2018-06-22T11:37:42.665Z,1.42
2018-06-22T11:40:11.039Z,1.47
2018-06-22T11:42:39.492Z,1.40
2018-06-22T11:45:07.918Z,1.40
2018-06-22T11:47:36.374Z,1.77
2018-06-22T11:50:04.806Z,1.42
2018-06-22T11:52:33.294Z,1.20
2018-06-22T11:55:01.751Z,1.90
2018-06-22T11:57:30.386Z,1.80
2018-06-22T11:59:58.821Z,1.98
2018-06-22T12:02:27.318Z,1.87
2018-06-22T12:04:55.800Z,2.70
2018-06-22T12:07:24.441Z,1.47
2018-06-22T12:09:52.837Z,1.57
2018-06-22T12:12:21.281Z,1.25
2018-06-22T12:14:49.848Z,1.02
2018-06-22T12:17:18.309Z,1.30
2018-06-22T12:19:46.827Z,1.30
2018-06-22T12:22:15.327Z,1.67
2018-06-22T12:24:43.889Z,1.15
2018-06-22T12:27:12.345Z,1.70
2018-06-22T12:29:40.737Z,1.77
2018-06-22T12:32:09.155Z,1.35
2018-06-22T12:34:37.583Z,1.75
2018-06-22T12:37:05.987Z,1.90
2018-06-22T12:39:34.491Z,1.45
2018-06-22T12:42:02.949Z,1.45
2018-06-22T12:44:31.620Z,1.27
2018-06-22T12:47:00.101Z,1.45
2018-06-22T12:49:28.562Z,1.42
2018-06-22T12:51:56.959Z,1.32
2018-06-22T12:54:25.430Z,1.27
2018-06-22T12:56:53.877Z,1.57
2018-06-22T12:59:22.251Z,1.60
2018-06-22T13:01:50.746Z,1.60
2018-06-22T13:04:19.261Z,1.67
2018-06-22T13:06:47.674Z,1.37
2018-06-22T13:09:16.417Z,1.25
2018-06-22T13:11:44.848Z,1.45
2018-06-22T13:14:13.233Z,1.37
2018-06-22T13:16:42.223Z,1.77
2018-06-22T13:19:10.698Z,1.42
2018-06-22T13:21:51.886Z,1.20
2018-06-22T13:24:21.700Z,1.20
2018-06-22T13:26:50.137Z,1.20
2018-06-22T13:29:18.553Z,1.80
2018-06-22T13:31:46.993Z,1.00
2018-06-22T13:34:16.560Z,1.17
2018-06-22T13:36:45.902Z,1.30
2018-06-22T13:39:16.715Z,1.42
2018-06-22T13:41:45.560Z,1.75
2018-06-22T13:44:14.053Z,3.95
2018-06-22T13:46:43.222Z,1.60
2018-06-22T13:49:12.172Z,1.30
2018-06-22T13:51:40.722Z,1.67
2018-06-22T13:54:09.646Z,2.00
2018-06-22T13:56:38.314Z,2.75
2018-06-22T13:59:06.846Z,3.90
2018-06-22T14:01:35.639Z,1.52
2018-06-22T14:04:09.626Z,1.27
2018-06-22T14:06:43.391Z,1.80
2018-06-22T14:09:13.462Z,1.00
2018-06-22T14:11:42.169Z,2.30
2018-06-22T14:14:10.781Z,1.87
2018-06-22T14:16:39.683Z,1.25
2018-06-22T14:19:08.509Z,1.70
2018-06-22T14:21:37.116Z,1.82
2018-06-22T14:24:07.131Z,1.40
2018-06-22T14:26:35.559Z,1.42
2018-06-22T14:29:04.342Z,1.57
2018-06-22T14:31:32.757Z,1.47
2018-06-22T14:34:01.352Z,1.50
2018-06-22T14:36:30.039Z,1.52
2018-06-22T14:38:58.542Z,2.60
2018-06-22T14:41:27.137Z,4.60
2018-06-22T14:43:56.058Z,3.72
2018-06-22T14:46:24.805Z,1.60
2018-06-22T14:48:53.340Z,0.98
2018-06-22T14:51:21.766Z,1.67
2018-06-22T14:53:55.635Z,1.20
2018-06-22T14:56:29.539Z,1.30
2018-06-22T14:59:03.202Z,1.10
2018-06-22T15:01:36.867Z,3.25
2018-06-22T15:04:10.748Z,1.62
2018-06-22T15:06:44.477Z,1.82
2018-06-22T15:09:12.853Z,1.95
2018-06-22T15:11:41.326Z,3.15
2018-06-22T15:14:09.756Z,4.80
2018-06-22T15:16:38.257Z,2.80
2018-06-22T15:19:06.858Z,6.15
2018-06-22T15:21:35.268Z,4.35
2018-06-22T15:24:03.789Z,5.75
2018-06-22T15:26:32.235Z,19.98
2018-06-22T15:29:00.634Z,9.65
2018-06-22T15:31:29.063Z,13.18
2018-06-22T15:34:02.537Z,7.22
2018-06-22T15:36:36.390Z,2.62
2018-06-22T15:39:13.356Z,1.70
2018-06-22T15:41:47.634Z,2.35
2018-06-22T15:44:21.620Z,7.40
2018-06-22T15:46:55.435Z,4.40
2018-06-22T15:49:29.329Z,20.20
2018-06-22T15:52:03.083Z,20.30
2018-06-22T15:54:36.824Z,1.40
2018-06-22T15:57:05.353Z,1.55
2018-06-22T15:59:33.766Z,1.70
2018-06-22T16:02:07.673Z,1.98
2018-06-22T16:04:36.197Z,1.95
2018-06-22T16:07:04.658Z,1.15
2018-06-22T16:09:37.420Z,2.02
2018-06-22T16:12:11.609Z,2.90
2018-06-22T16:14:45.320Z,1.80
2018-06-22T16:17:18.870Z,2.20
2018-06-22T16:20:51.434Z,1.55
2018-06-22T16:23:25.616Z,1.20
2018-06-22T16:25:59.547Z,4.92
2018-06-22T16:28:28.006Z,1.50
2018-06-22T16:30:56.426Z,4.20
2018-06-22T16:33:25.506Z,1.72
2018-06-22T16:35:53.904Z,1.57
2018-06-22T16:38:22.275Z,4.17
2018-06-22T16:40:50.728Z,2.30
2018-06-22T16:43:19.226Z,3.92
2018-06-22T16:45:47.718Z,9.18
2018-06-22T16:48:16.178Z,3.47
2018-06-22T16:50:44.567Z,3.25
2018-06-22T16:53:13.098Z,2.40
2018-06-22T16:55:41.671Z,1.85
2018-06-22T16:58:15.460Z,1.87
2018-06-22T17:00:43.902Z,1.57
2018-06-22T17:03:12.655Z,1.70
2018-06-22T17:05:41.241Z,2.00
2018-06-22T17:08:15.611Z,6.95
2018-06-22T17:10:49.581Z,11.53
2018-06-22T17:13:23.357Z,6.53
2018-06-22T17:15:57.330Z,17.07
2018-06-22T17:18:31.035Z,3.70
2018-06-22T17:20:59.378Z,1.80
2018-06-22T17:23:27.806Z,1.77
2018-06-22T17:25:56.561Z,1.52
2018-06-22T17:28:24.924Z,2.35
2018-06-22T17:30:53.523Z,4.83
2018-06-22T17:33:22.041Z,2.35
2018-06-22T17:35:50.502Z,2.00
2018-06-22T17:38:18.943Z,2.67
2018-06-22T17:40:47.475Z,9.25
2018-06-22T17:43:16.010Z,7.17
2018-06-22T17:45:44.393Z,6.60
2018-06-22T17:48:12.932Z,2.35
2018-06-22T17:50:41.577Z,1.95
2018-06-22T17:53:10.766Z,1.95
2018-06-22T17:55:39.317Z,2.17
2018-06-22T17:58:07.766Z,3.72
2018-06-22T18:00:41.525Z,2.05
2018-06-22T18:03:15.226Z,2.98
2018-06-22T18:05:48.862Z,3.22
2018-06-22T18:08:22.543Z,2.15
2018-06-22T18:10:56.506Z,1.82
2018-06-22T18:13:24.947Z,6.80
2018-06-22T18:15:53.438Z,4.78
2018-06-22T18:18:21.849Z,4.08
2018-06-22T18:20:50.519Z,2.00
2018-06-22T18:23:18.943Z,1.55
2018-06-22T18:25:47.311Z,1.85
2018-06-22T18:28:15.788Z,2.20
2018-06-22T18:30:44.166Z,1.87
2018-06-22T18:33:12.657Z,1.77
2018-06-22T18:35:40.978Z,1.82
2018-06-22T18:38:09.357Z,2.00
2018-06-22T18:40:37.818Z,1.77
2018-06-22T18:43:07.277Z,2.20
2018-06-22T18:45:35.648Z,2.10
2018-06-22T18:48:04.041Z,1.70
2018-06-22T18:50:32.455Z,1.98
2018-06-22T18:53:06.290Z,2.02
2018-06-22T18:55:40.104Z,2.17
2018-06-22T18:58:13.968Z,3.67
2018-06-22T19:00:47.774Z,4.28
2018-06-22T19:03:21.709Z,5.30
2018-06-22T19:05:50.100Z,6.95
2018-06-22T19:08:18.486Z,7.35
2018-06-22T19:10:46.902Z,10.68
2018-06-22T19:13:15.275Z,4.08
2018-06-22T19:15:44.241Z,3.10
2018-06-22T19:18:12.683Z,3.67
2018-06-22T19:20:41.042Z,16.15
2018-06-22T19:23:09.502Z,27.50
2018-06-22T19:25:37.895Z,16.20
2018-06-22T19:28:06.548Z,18.43
2018-06-22T19:30:34.958Z,6.60
2018-06-22T19:33:03.493Z,10.87
2018-06-22T19:35:31.910Z,15.47
2018-06-22T19:38:00.391Z,20.70
2018-06-22T19:40:28.934Z,4.10
2018-06-22T19:42:57.317Z,8.10
2018-06-22T19:45:31.148Z,5.33
2018-06-22T19:48:05.015Z,4.47
2018-06-22T19:50:38.601Z,3.80
2018-06-22T19:53:12.294Z,3.23
2018-06-22T19:55:40.714Z,3.80
2018-06-22T19:58:09.075Z,3.10
2018-06-22T20:00:37.493Z,3.20
2018-06-22T20:03:05.858Z,4.93
2018-06-22T20:05:34.339Z,15.47
2018-06-22T20:08:02.765Z,10.07
2018-06-22T20:10:31.213Z,3.10
2018-06-22T20:12:59.641Z,2.37
2018-06-22T20:15:28.116Z,2.00
2018-06-22T20:17:56.607Z,2.60
2018-06-22T20:20:25.073Z,1.77
2018-06-22T20:22:53.145Z,2.40
2018-06-22T20:25:26.976Z,1.90
2018-06-22T20:27:55.398Z,2.70
2018-06-22T20:30:24.276Z,2.23
2018-06-22T20:32:52.622Z,1.80
2018-06-22T20:35:26.485Z,2.00
2018-06-22T20:38:00.335Z,2.03
2018-06-22T20:40:34.210Z,2.17
2018-06-22T20:44:06.819Z,2.80
2018-06-22T20:47:38.427Z,2.03
2018-06-22T20:50:12.197Z,2.80
2018-06-22T20:52:40.594Z,2.90
2018-06-22T20:55:09.081Z,3.00
2018-06-22T20:57:37.517Z,2.20
2018-06-22T21:00:06.267Z,1.50
2018-06-22T21:02:34.665Z,1.60
2018-06-22T21:05:03.191Z,2.50
2018-06-22T21:07:31.597Z,1.80
2018-06-22T21:09:59.995Z,2.20
2018-06-22T21:12:40.415Z,2.40
2018-06-22T21:14:56.826Z,2.00
2018-06-22T21:17:25.386Z,1.77
2018-06-22T21:19:53.838Z,2.30
2018-06-22T21:22:22.386Z,1.80
2018-06-22T21:24:50.892Z,2.47
2018-06-22T21:27:24.652Z,1.90
2018-06-22T21:29:58.352Z,1.63
2018-06-22T21:32:31.982Z,2.17
2018-06-22T21:35:05.803Z,1.67
2018-06-22T21:37:39.638Z,2.27
2018-06-22T21:40:08.086Z,1.60
2018-06-22T21:42:36.474Z,1.80
2018-06-22T21:45:04.977Z,2.07
2018-06-22T21:47:33.492Z,2.03
2018-06-22T21:50:01.919Z,1.90
2018-06-22T21:52:30.314Z,2.63
2018-06-22T21:54:58.714Z,2.00
2018-06-22T21:57:27.202Z,2.50
2018-06-22T21:59:56.317Z,2.03
2018-06-22T22:02:24.737Z,2.80
2018-06-22T22:04:53.149Z,2.67
2018-06-22T22:07:21.682Z,2.33
2018-06-22T22:09:50.078Z,2.50
2018-06-22T22:12:18.493Z,2.23
2018-06-22T22:14:46.877Z,2.03
2018-06-22T22:17:15.389Z,2.00
2018-06-22T22:19:43.803Z,2.20
2018-06-22T22:22:12.312Z,2.13
2018-06-22T22:24:40.728Z,1.90
2018-06-22T22:27:09.238Z,2.17
2018-06-22T22:29:37.661Z,1.90
2018-06-22T22:32:06.212Z,2.87
2018-06-22T22:34:34.689Z,2.30
2018-06-22T22:37:03.053Z,2.60
2018-06-22T22:39:31.474Z,2.13
2018-06-22T22:41:59.861Z,2.33
2018-06-22T22:44:28.228Z,2.00
2018-06-22T22:46:56.646Z,1.80
2018-06-22T22:49:25.030Z,1.97
2018-06-22T22:51:53.373Z,2.30
2018-06-22T22:54:22.629Z,1.77
2018-06-22T22:56:51.030Z,2.03
2018-06-22T22:59:19.131Z,2.23
2018-06-22T23:01:47.648Z,1.67
2018-06-22T23:04:16.070Z,1.90
2018-06-22T23:06:45.230Z,2.10
2018-06-22T23:09:13.884Z,2.10
2018-06-22T23:11:42.278Z,2.50
2018-06-22T23:14:10.696Z,2.37
2018-06-22T23:16:39.033Z,2.40
2018-06-22T23:19:07.452Z,2.37
2018-06-22T23:21:35.584Z,2.63
2018-06-22T23:24:04.059Z,2.43
2018-06-22T23:26:32.446Z,2.13
2018-06-22T23:29:00.811Z,2.60
2018-06-22T23:31:29.167Z,1.83
2018-06-22T23:33:57.787Z,2.33
2018-06-22T23:36:26.165Z,2.37
2018-06-22T23:38:54.586Z,2.13
2018-06-22T23:41:22.990Z,2.40
2018-06-22T23:43:51.440Z,2.30
2018-06-22T23:46:19.825Z,2.10
2018-06-22T23:48:48.274Z,2.60
2018-06-22T23:51:16.674Z,2.67
2018-06-22T23:53:45.075Z,2.67
2018-06-22T23:56:13.641Z,2.33
2018-06-22T23:58:42.008Z,1.90
